sensor_id;sensor_type;location;lat;lon;timestamp;pressure;altitude;pressure_sealevel;temperature;humidity
56330;BME280;42236;48.058;10.632;2024-03-02T00:01:39;93612.34;;;4.98;100.00
56330;BME280;42236;48.058;10.632;2024-03-02T00:04:25;93604.66;;;4.96;100.00
56330;BME280;42236;48.058;10.632;2024-03-02T00:07:11;93605.34;;;4.93;100.00
56330;BME280;42236;48.058;10.632;2024-03-02T00:10:00;93607.09;;;4.89;100.00
56330;BME280;42236;48.058;10.632;2024-03-02T00:12:47;93608.84;;;4.85;100.00
56330;BME280;42236;48.058;10.632;2024-03-02T00:15:40;93611.53;;;4.85;100.00
56330;BME280;42236;48.058;10.632;2024-03-02T00:18:32;93613.28;;;4.81;100.00
56330;BME280;42236;48.058;10.632;2024-03-02T00:21:18;93620.41;;;4.77;100.00
56330;BME280;42236;48.058;10.632;2024-03-02T00:24:19;93623.84;;;4.77;100.00
56330;BME280;42236;48.058;10.632;2024-03-02T00:27:07;93618.19;;;4.79;100.00
56330;BME280;42236;48.058;10.632;2024-03-02T00:29:52;93619.28;;;4.78;100.00
56330;BME280;42236;48.058;10.632;2024-03-02T00:32:38;93621.84;;;4.74;100.00
56330;BME280;42236;48.058;10.632;2024-03-02T00:35:24;93621.72;;;4.70;100.00
56330;BME280;42236;48.058;10.632;2024-03-02T00:38:14;93620.81;;;4.66;100.00
56330;BME280;42236;48.058;10.632;2024-03-02T00:41:05;93620.38;;;4.64;100.00
56330;BME280;42236;48.058;10.632;2024-03-02T00:44:01;93614.56;;;4.62;100.00
56330;BME280;42236;48.058;10.632;2024-03-02T00:46:47;93614.56;;;4.62;100.00
56330;BME280;42236;48.058;10.632;2024-03-02T00:49:32;93617.25;;;4.62;100.00
56330;BME280;42236;48.058;10.632;2024-03-02T00:52:18;93613.00;;;4.61;100.00
56330;BME280;42236;48.058;10.632;2024-03-02T00:55:04;93614.09;;;4.60;100.00
56330;BME280;42236;48.058;10.632;2024-03-02T00:57:51;93615.66;;;4.61;100.00
56330;BME280;42236;48.058;10.632;2024-03-02T01:00:36;93608.75;;;4.60;100.00
56330;BME280;42236;48.058;10.632;2024-03-02T01:03:22;93605.31;;;4.60;100.00
56330;BME280;42236;48.058;10.632;2024-03-02T01:06:08;93604.19;;;4.61;100.00
56330;BME280;42236;48.058;10.632;2024-03-02T01:08:54;93608.75;;;4.60;100.00
56330;BME280;42236;48.058;10.632;2024-03-02T01:11:40;93601.53;;;4.61;100.00
56330;BME280;42236;48.058;10.632;2024-03-02T01:14:25;93602.75;;;4.63;100.00
56330;BME280;42236;48.058;10.632;2024-03-02T01:17:11;93598.19;;;4.64;100.00
56330;BME280;42236;48.058;10.632;2024-03-02T01:19:57;93604.34;;;4.64;100.00
56330;BME280;42236;48.058;10.632;2024-03-02T01:22:42;93599.00;;;4.64;100.00
56330;BME280;42236;48.058;10.632;2024-03-02T01:25:28;93589.84;;;4.65;100.00
56330;BME280;42236;48.058;10.632;2024-03-02T01:28:14;93591.44;;;4.66;100.00
56330;BME280;42236;48.058;10.632;2024-03-02T01:31:00;93589.66;;;4.70;100.00
56330;BME280;42236;48.058;10.632;2024-03-02T01:33:47;93600.78;;;4.73;100.00
56330;BME280;42236;48.058;10.632;2024-03-02T01:36:33;93603.16;;;4.74;100.00
56330;BME280;42236;48.058;10.632;2024-03-02T01:39:18;93598.69;;;4.78;100.00
56330;BME280;42236;48.058;10.632;2024-03-02T01:42:04;93599.59;;;4.82;100.00
56330;BME280;42236;48.058;10.632;2024-03-02T01:44:50;93598.81;;;4.82;100.00
56330;BME280;42236;48.058;10.632;2024-03-02T01:47:36;93609.72;;;4.77;100.00
56330;BME280;42236;48.058;10.632;2024-03-02T01:50:29;93610.72;;;4.72;100.00
56330;BME280;42236;48.058;10.632;2024-03-02T01:53:15;93602.38;;;4.74;100.00
56330;BME280;42236;48.058;10.632;2024-03-02T01:56:02;93600.78;;;4.73;100.00
56330;BME280;42236;48.058;10.632;2024-03-02T01:58:47;93598.44;;;4.71;100.00
56330;BME280;42236;48.058;10.632;2024-03-02T02:01:33;93598.44;;;4.71;100.00
56330;BME280;42236;48.058;10.632;2024-03-02T02:04:19;93599.56;;;4.70;100.00
56330;BME280;42236;48.058;10.632;2024-03-02T02:07:08;93591.69;;;4.74;100.00
56330;BME280;42236;48.058;10.632;2024-03-02T02:09:55;93587.22;;;4.78;100.00
56330;BME280;42236;48.058;10.632;2024-03-02T02:12:40;93587.22;;;4.78;100.00
56330;BME280;42236;48.058;10.632;2024-03-02T02:15:28;93581.88;;;4.78;100.00
56330;BME280;42236;48.058;10.632;2024-03-02T02:18:14;93584.56;;;4.78;100.00
56330;BME280;42236;48.058;10.632;2024-03-02T02:20:59;93578.13;;;4.79;100.00
56330;BME280;42236;48.058;10.632;2024-03-02T02:23:45;93584.56;;;4.78;100.00
56330;BME280;42236;48.058;10.632;2024-03-02T02:26:33;93584.25;;;4.79;100.00
56330;BME280;42236;48.058;10.632;2024-03-02T02:29:19;93584.69;;;4.81;100.00
56330;BME280;42236;48.058;10.632;2024-03-02T02:32:05;93582.78;;;4.82;100.00
56330;BME280;42236;48.058;10.632;2024-03-02T02:34:54;93585.00;;;4.80;100.00
56330;BME280;42236;48.058;10.632;2024-03-02T02:37:39;93586.56;;;4.81;100.00
56330;BME280;42236;48.058;10.632;2024-03-02T02:40:25;93577.00;;;4.80;100.00
56330;BME280;42236;48.058;10.632;2024-03-02T02:43:11;93572.31;;;4.77;100.00
56330;BME280;42236;48.058;10.632;2024-03-02T02:45:57;93574.09;;;4.73;100.00
56330;BME280;42236;48.058;10.632;2024-03-02T02:48:42;93576.28;;;4.70;100.00
56330;BME280;42236;48.058;10.632;2024-03-02T02:51:28;93570.06;;;4.66;100.00
56330;BME280;42236;48.058;10.632;2024-03-02T02:54:14;93566.94;;;4.64;100.00
56330;BME280;42236;48.058;10.632;2024-03-02T02:56:59;93577.16;;;4.62;100.00
56330;BME280;42236;48.058;10.632;2024-03-02T02:59:45;93584.28;;;4.58;100.00
56330;BME280;42236;48.058;10.632;2024-03-02T03:02:31;93581.94;;;4.57;100.00
56330;BME280;42236;48.058;10.632;2024-03-02T03:05:16;93586.47;;;4.56;100.00
56330;BME280;42236;48.058;10.632;2024-03-02T03:08:02;93592.16;;;4.55;100.00
56330;BME280;42236;48.058;10.632;2024-03-02T03:10:49;93588.06;;;4.57;100.00
56330;BME280;42236;48.058;10.632;2024-03-02T03:13:35;93596.19;;;4.61;100.00
56330;BME280;42236;48.058;10.632;2024-03-02T03:16:21;93596.31;;;4.64;100.00
56330;BME280;42236;48.058;10.632;2024-03-02T03:19:06;93594.44;;;4.65;100.00
56330;BME280;42236;48.058;10.632;2024-03-02T03:21:52;93597.88;;;4.65;100.00
56330;BME280;42236;48.058;10.632;2024-03-02T03:24:38;93599.44;;;4.66;100.00
56330;BME280;42236;48.058;10.632;2024-03-02T03:27:23;93607.00;;;4.64;100.00
56330;BME280;42236;48.058;10.632;2024-03-02T03:30:09;93605.13;;;4.65;100.00
56330;BME280;42236;48.058;10.632;2024-03-02T03:32:55;93607.47;;;4.66;100.00
56330;BME280;42236;48.058;10.632;2024-03-02T03:35:41;93606.03;;;4.69;100.00
56330;BME280;42236;48.058;10.632;2024-03-02T03:38:27;93611.03;;;4.70;100.00
56330;BME280;42236;48.058;10.632;2024-03-02T03:41:12;93621.41;;;4.72;100.00
56330;BME280;42236;48.058;10.632;2024-03-02T03:43:58;93626.59;;;4.68;100.00
56330;BME280;42236;48.058;10.632;2024-03-02T03:46:44;93622.84;;;4.69;100.00
56330;BME280;42236;48.058;10.632;2024-03-02T03:49:29;93620.63;;;4.72;100.00
56330;BME280;42236;48.058;10.632;2024-03-02T03:52:15;93622.16;;;4.73;100.00
56330;BME280;42236;48.058;10.632;2024-03-02T03:55:01;93626.41;;;4.74;100.00
56330;BME280;42236;48.058;10.632;2024-03-02T03:57:47;93624.84;;;4.73;100.00
56330;BME280;42236;48.058;10.632;2024-03-02T04:00:32;93632.84;;;4.73;100.00
56330;BME280;42236;48.058;10.632;2024-03-02T04:03:18;93628.94;;;4.70;100.00
56330;BME280;42236;48.058;10.632;2024-03-02T04:06:04;93630.06;;;4.69;100.00
56330;BME280;42236;48.058;10.632;2024-03-02T04:08:50;93634.59;;;4.68;100.00
56330;BME280;42236;48.058;10.632;2024-03-02T04:11:35;93635.72;;;4.67;100.00
56330;BME280;42236;48.058;10.632;2024-03-02T04:14:21;93638.09;;;4.69;100.00
56330;BME280;42236;48.058;10.632;2024-03-02T04:17:06;93638.84;;;4.69;100.00
56330;BME280;42236;48.058;10.632;2024-03-02T04:19:52;93645.97;;;4.65;100.00
56330;BME280;42236;48.058;10.632;2024-03-02T04:22:38;93644.25;;;4.61;100.00
56330;BME280;42236;48.058;10.632;2024-03-02T04:25:23;93648.38;;;4.58;100.00
56330;BME280;42236;48.058;10.632;2024-03-02T04:28:09;93651.50;;;4.60;100.00
56330;BME280;42236;48.058;10.632;2024-03-02T04:30:55;93646.94;;;4.61;100.00
56330;BME280;42236;48.058;10.632;2024-03-02T04:33:41;93647.72;;;4.61;100.00
56330;BME280;42236;48.058;10.632;2024-03-02T04:36:26;93644.59;;;4.59;100.00
56330;BME280;42236;48.058;10.632;2024-03-02T04:39:12;93647.72;;;4.61;100.00
56330;BME280;42236;48.058;10.632;2024-03-02T04:41:58;93649.28;;;4.62;100.00
56330;BME280;42236;48.058;10.632;2024-03-02T04:44:44;93653.06;;;4.61;100.00
56330;BME280;42236;48.058;10.632;2024-03-02T04:47:30;93644.25;;;4.61;100.00
56330;BME280;42236;48.058;10.632;2024-03-02T04:50:15;93646.81;;;4.57;100.00
56330;BME280;42236;48.058;10.632;2024-03-02T04:53:01;93655.28;;;4.59;100.00
56330;BME280;42236;48.058;10.632;2024-03-02T04:55:46;93652.63;;;4.59;100.00
56330;BME280;42236;48.058;10.632;2024-03-02T04:58:52;93653.72;;;4.58;100.00
56330;BME280;42236;48.058;10.632;2024-03-02T05:01:38;93654.38;;;4.55;100.00
56330;BME280;42236;48.058;10.632;2024-03-02T05:04:23;93651.91;;;4.50;100.00
56330;BME280;42236;48.058;10.632;2024-03-02T05:07:09;93662.78;;;4.45;100.00
56330;BME280;42236;48.058;10.632;2024-03-02T05:09:55;93648.50;;;4.41;100.00
56330;BME280;42236;48.058;10.632;2024-03-02T05:12:41;93643.81;;;4.38;100.00
56330;BME280;42236;48.058;10.632;2024-03-02T05:15:38;93651.22;;;4.32;100.00
56330;BME280;42236;48.058;10.632;2024-03-02T05:18:24;93660.22;;;4.27;100.00
56330;BME280;42236;48.058;10.632;2024-03-02T05:21:10;93654.28;;;4.22;100.00
56330;BME280;42236;48.058;10.632;2024-03-02T05:24:27;93652.94;;;4.16;100.00
56330;BME280;42236;48.058;10.632;2024-03-02T05:27:15;93650.41;;;4.11;100.00
56330;BME280;42236;48.058;10.632;2024-03-02T05:30:04;93655.94;;;4.05;100.00
56330;BME280;42236;48.058;10.632;2024-03-02T05:32:52;93647.81;;;4.02;100.00
56330;BME280;42236;48.058;10.632;2024-03-02T05:35:37;93644.69;;;4.00;100.00
56330;BME280;42236;48.058;10.632;2024-03-02T05:38:54;93643.75;;;3.96;100.00
56330;BME280;42236;48.058;10.632;2024-03-02T05:45:28;93651.50;;;3.89;100.00
56330;BME280;42236;48.058;10.632;2024-03-02T05:48:17;93645.69;;;3.87;100.00
56330;BME280;42236;48.058;10.632;2024-03-02T05:51:18;93652.16;;;3.85;100.00
56330;BME280;42236;48.058;10.632;2024-03-02T05:54:09;93646.16;;;3.89;100.00
56330;BME280;42236;48.058;10.632;2024-03-02T05:57:21;93652.56;;;3.96;100.00
56330;BME280;42236;48.058;10.632;2024-03-02T06:01:00;93648.47;;;3.99;100.00
56330;BME280;42236;48.058;10.632;2024-03-02T06:03:52;93646.25;;;4.01;100.00
56330;BME280;42236;48.058;10.632;2024-03-02T06:07:09;93652.50;;;4.05;100.00
56330;BME280;42236;48.058;10.632;2024-03-02T06:14:25;93649.78;;;4.14;100.00
56330;BME280;42236;48.058;10.632;2024-03-02T06:17:11;93651.03;;;4.16;100.00
56330;BME280;42236;48.058;10.632;2024-03-02T06:20:07;93659.03;;;4.16;100.00
56330;BME280;42236;48.058;10.632;2024-03-02T06:22:59;93652.00;;;4.12;100.00
56330;BME280;42236;48.058;10.632;2024-03-02T06:29:35;93655.88;;;4.23;100.00
56330;BME280;42236;48.058;10.632;2024-03-02T06:32:23;93661.00;;;4.28;100.00
56330;BME280;42236;48.058;10.632;2024-03-02T06:35:10;93659.59;;;4.31;100.00
56330;BME280;42236;48.058;10.632;2024-03-02T06:37:57;93667.84;;;4.38;100.00
56330;BME280;42236;48.058;10.632;2024-03-02T06:40:43;93663.09;;;4.43;100.00
56330;BME280;42236;48.058;10.632;2024-03-02T06:43:29;93656.31;;;4.46;100.00
56330;BME280;42236;48.058;10.632;2024-03-02T06:46:15;93656.31;;;4.46;100.00
56330;BME280;42236;48.058;10.632;2024-03-02T06:49:00;93652.69;;;4.51;100.00
56330;BME280;42236;48.058;10.632;2024-03-02T06:51:47;93655.91;;;4.56;100.00
56330;BME280;42236;48.058;10.632;2024-03-02T06:54:33;93668.44;;;4.64;100.00
56330;BME280;42236;48.058;10.632;2024-03-02T06:57:20;93664.81;;;4.69;100.00
56330;BME280;42236;48.058;10.632;2024-03-02T07:00:06;93665.69;;;4.73;100.00
56330;BME280;42236;48.058;10.632;2024-03-02T07:02:54;93666.59;;;4.77;100.00
56330;BME280;42236;48.058;10.632;2024-03-02T07:05:39;93664.66;;;4.86;100.00
56330;BME280;42236;48.058;10.632;2024-03-02T07:08:25;93669.25;;;4.98;100.00
56330;BME280;42236;48.058;10.632;2024-03-02T07:11:11;93672.19;;;5.05;100.00
56330;BME280;42236;48.058;10.632;2024-03-02T07:13:57;93672.53;;;5.16;100.00
56330;BME280;42236;48.058;10.632;2024-03-02T07:16:42;93668.66;;;5.26;100.00
56330;BME280;42236;48.058;10.632;2024-03-02T07:19:28;93674.72;;;5.35;100.00
56330;BME280;42236;48.058;10.632;2024-03-02T07:22:14;93668.94;;;5.45;100.00
56330;BME280;42236;48.058;10.632;2024-03-02T07:25:00;93668.97;;;5.57;100.00
56330;BME280;42236;48.058;10.632;2024-03-02T07:28:08;93675.44;;;5.69;100.00
56330;BME280;42236;48.058;10.632;2024-03-02T07:31:06;93673.44;;;5.78;100.00
56330;BME280;42236;48.058;10.632;2024-03-02T07:37:14;93669.91;;;5.98;100.00
56330;BME280;42236;48.058;10.632;2024-03-02T07:43:40;93670.56;;;6.20;100.00
56330;BME280;42236;48.058;10.632;2024-03-02T07:47:07;93667.88;;;6.32;100.00
56330;BME280;42236;48.058;10.632;2024-03-02T07:50:14;93679.13;;;6.50;100.00
56330;BME280;42236;48.058;10.632;2024-03-02T07:53:01;93678.75;;;6.64;100.00
56330;BME280;42236;48.058;10.632;2024-03-02T07:56:29;93677.50;;;6.74;100.00
56330;BME280;42236;48.058;10.632;2024-03-02T07:59:51;93670.22;;;6.87;100.00
56330;BME280;42236;48.058;10.632;2024-03-02T08:03:36;93677.44;;;6.98;100.00
56330;BME280;42236;48.058;10.632;2024-03-02T08:07:21;93674.81;;;7.14;100.00
56330;BME280;42236;48.058;10.632;2024-03-02T08:10:35;93673.97;;;7.26;100.00
56330;BME280;42236;48.058;10.632;2024-03-02T08:16:45;93673.94;;;7.54;100.00
56330;BME280;42236;48.058;10.632;2024-03-02T08:23:21;93679.84;;;7.76;100.00
56330;BME280;42236;48.058;10.632;2024-03-02T08:29:59;93680.63;;;7.92;100.00
56330;BME280;42236;48.058;10.632;2024-03-02T08:41:23;93685.13;;;8.20;100.00
56330;BME280;42236;48.058;10.632;2024-03-02T08:53:01;93690.03;;;8.49;100.00
56330;BME280;42236;48.058;10.632;2024-03-02T09:00:19;93682.28;;;8.64;100.00
56330;BME280;42236;48.058;10.632;2024-03-02T09:03:38;93674.38;;;8.71;100.00
56330;BME280;42236;48.058;10.632;2024-03-02T09:07:04;93676.50;;;8.81;100.00
56330;BME280;42236;48.058;10.632;2024-03-02T09:10:42;93675.13;;;8.87;99.67
56330;BME280;42236;48.058;10.632;2024-03-02T09:13:50;93667.63;;;8.96;100.00
56330;BME280;42236;48.058;10.632;2024-03-02T09:20:39;93669.03;;;9.10;100.00
56330;BME280;42236;48.058;10.632;2024-03-02T09:23:37;93672.19;;;9.15;100.00
56330;BME280;42236;48.058;10.632;2024-03-02T09:26:44;93657.69;;;9.20;100.00
56330;BME280;42236;48.058;10.632;2024-03-02T09:29:36;93657.00;;;9.23;100.00
56330;BME280;42236;48.058;10.632;2024-03-02T09:32:22;93650.47;;;9.24;100.00
56330;BME280;42236;48.058;10.632;2024-03-02T09:35:08;93658.53;;;9.24;100.00
56330;BME280;42236;48.058;10.632;2024-03-02T09:38:03;93656.69;;;9.28;100.00
56330;BME280;42236;48.058;10.632;2024-03-02T09:40:56;93655.63;;;9.33;99.70
56330;BME280;42236;48.058;10.632;2024-03-02T09:43:42;93655.34;;;9.38;99.35
56330;BME280;42236;48.058;10.632;2024-03-02T09:46:28;93655.81;;;9.44;98.09
56330;BME280;42236;48.058;10.632;2024-03-02T09:49:14;93657.09;;;9.50;98.64
56330;BME280;42236;48.058;10.632;2024-03-02T09:52:00;93652.97;;;9.56;98.89
56330;BME280;42236;48.058;10.632;2024-03-02T09:54:47;93640.81;;;9.66;98.17
56330;BME280;42236;48.058;10.632;2024-03-02T09:57:34;93652.47;;;9.73;96.83
56330;BME280;42236;48.058;10.632;2024-03-02T10:00:19;93646.09;;;9.81;96.62
56330;BME280;42236;48.058;10.632;2024-03-02T10:03:11;93647.75;;;9.90;91.48
56330;BME280;42236;48.058;10.632;2024-03-02T10:09:06;93646.84;;;10.05;93.24
56330;BME280;42236;48.058;10.632;2024-03-02T10:11:51;93641.84;;;10.03;90.28
56330;BME280;42236;48.058;10.632;2024-03-02T10:14:38;93644.25;;;10.12;90.87
56330;BME280;42236;48.058;10.632;2024-03-02T10:17:31;93642.22;;;10.29;88.02
56330;BME280;42236;48.058;10.632;2024-03-02T10:20:24;93634.72;;;10.41;88.46
56330;BME280;42236;48.058;10.632;2024-03-02T10:23:11;93633.63;;;10.46;87.98
56330;BME280;42236;48.058;10.632;2024-03-02T10:25:57;93634.09;;;10.52;89.96
56330;BME280;42236;48.058;10.632;2024-03-02T10:28:46;93624.50;;;10.54;86.21
56330;BME280;42236;48.058;10.632;2024-03-02T10:31:45;93624.63;;;10.65;87.62
56330;BME280;42236;48.058;10.632;2024-03-02T10:34:31;93619.72;;;10.71;88.19
56330;BME280;42236;48.058;10.632;2024-03-02T10:37:17;93622.84;;;10.76;89.04
56330;BME280;42236;48.058;10.632;2024-03-02T10:40:06;93618.69;;;10.82;86.91
56330;BME280;42236;48.058;10.632;2024-03-02T10:42:54;93609.50;;;10.87;88.03
56330;BME280;42236;48.058;10.632;2024-03-02T10:45:40;93612.25;;;10.91;86.17
56330;BME280;42236;48.058;10.632;2024-03-02T10:48:26;93603.03;;;10.95;86.01
56330;BME280;42236;48.058;10.632;2024-03-02T10:51:12;93603.53;;;11.04;86.37
56330;BME280;42236;48.058;10.632;2024-03-02T10:53:59;93600.13;;;11.11;86.28
56330;BME280;42236;48.058;10.632;2024-03-02T10:56:46;93594.78;;;11.15;85.92
56330;BME280;42236;48.058;10.632;2024-03-02T10:59:36;93586.28;;;11.13;83.23
56330;BME280;42236;48.058;10.632;2024-03-02T11:02:24;93586.63;;;11.11;84.90
56330;BME280;42236;48.058;10.632;2024-03-02T11:05:31;93585.91;;;11.14;80.14
56330;BME280;42236;48.058;10.632;2024-03-02T11:08:18;93575.13;;;11.18;84.70
56330;BME280;42236;48.058;10.632;2024-03-02T11:11:15;93570.50;;;11.15;80.17
56330;BME280;42236;48.058;10.632;2024-03-02T11:14:01;93563.91;;;11.12;82.66
56330;BME280;42236;48.058;10.632;2024-03-02T11:16:53;93557.00;;;11.18;81.98
56330;BME280;42236;48.058;10.632;2024-03-02T11:19:40;93554.78;;;11.24;82.42
56330;BME280;42236;48.058;10.632;2024-03-02T11:22:26;93548.56;;;11.23;81.99
56330;BME280;42236;48.058;10.632;2024-03-02T11:25:26;93556.28;;;11.21;78.11
56330;BME280;42236;48.058;10.632;2024-03-02T11:28:12;93553.13;;;11.16;75.42
56330;BME280;42236;48.058;10.632;2024-03-02T11:30:58;93545.09;;;11.19;80.68
56330;BME280;42236;48.058;10.632;2024-03-02T11:33:43;93546.69;;;11.27;79.78
56330;BME280;42236;48.058;10.632;2024-03-02T11:36:29;93539.38;;;11.28;79.56
56330;BME280;42236;48.058;10.632;2024-03-02T11:39:15;93533.19;;;11.24;80.00
56330;BME280;42236;48.058;10.632;2024-03-02T11:42:01;93532.44;;;11.27;79.95
56330;BME280;42236;48.058;10.632;2024-03-02T11:44:48;93529.72;;;11.27;79.91
56330;BME280;42236;48.058;10.632;2024-03-02T11:47:34;93506.25;;;11.31;79.85
56330;BME280;42236;48.058;10.632;2024-03-02T11:53:15;93500.84;;;11.31;79.66
56330;BME280;42236;48.058;10.632;2024-03-02T11:56:02;93503.84;;;11.26;80.65
56330;BME280;42236;48.058;10.632;2024-03-02T11:58:48;93498.47;;;11.26;82.20
56330;BME280;42236;48.058;10.632;2024-03-02T12:01:34;93493.88;;;11.30;82.00
56330;BME280;42236;48.058;10.632;2024-03-02T12:04:21;93490.00;;;11.27;79.96
56330;BME280;42236;48.058;10.632;2024-03-02T12:07:07;93483.88;;;11.34;81.34
56330;BME280;42236;48.058;10.632;2024-03-02T12:10:00;93474.66;;;11.39;76.05
56330;BME280;42236;48.058;10.632;2024-03-02T12:12:55;93472.75;;;11.39;74.00
56330;BME280;42236;48.058;10.632;2024-03-02T12:15:41;93468.56;;;11.45;77.97
56330;BME280;42236;48.058;10.632;2024-03-02T12:18:26;93473.22;;;11.48;76.49
56330;BME280;42236;48.058;10.632;2024-03-02T12:21:12;93462.81;;;11.50;77.50
56330;BME280;42236;48.058;10.632;2024-03-02T12:23:58;93468.63;;;11.52;77.44
56330;BME280;42236;48.058;10.632;2024-03-02T12:26:44;93453.97;;;11.57;76.83
56330;BME280;42236;48.058;10.632;2024-03-02T12:29:30;93457.84;;;11.60;76.36
56330;BME280;42236;48.058;10.632;2024-03-02T12:32:16;93444.72;;;11.62;75.39
56330;BME280;42236;48.058;10.632;2024-03-02T12:35:04;93443.97;;;11.61;72.25
56330;BME280;42236;48.058;10.632;2024-03-02T12:37:53;93454.81;;;11.65;72.88
56330;BME280;42236;48.058;10.632;2024-03-02T12:40:38;93436.28;;;11.67;74.59
56330;BME280;42236;48.058;10.632;2024-03-02T12:43:24;93438.63;;;11.72;74.07
56330;BME280;42236;48.058;10.632;2024-03-02T12:46:10;93429.78;;;11.75;74.34
56330;BME280;42236;48.058;10.632;2024-03-02T12:48:56;93434.00;;;11.76;74.33
56330;BME280;42236;48.058;10.632;2024-03-02T12:51:43;93427.47;;;11.77;72.74
56330;BME280;42236;48.058;10.632;2024-03-02T12:54:28;93420.91;;;11.74;73.74
56330;BME280;42236;48.058;10.632;2024-03-02T12:57:18;93420.91;;;11.78;71.60
56330;BME280;42236;48.058;10.632;2024-03-02T13:00:05;93414.78;;;11.85;74.30
56330;BME280;42236;48.058;10.632;2024-03-02T13:02:56;93410.13;;;11.85;72.75
56330;BME280;42236;48.058;10.632;2024-03-02T13:05:49;93415.19;;;11.87;72.23
56330;BME280;42236;48.058;10.632;2024-03-02T13:08:35;93406.34;;;11.93;74.57
56330;BME280;42236;48.058;10.632;2024-03-02T13:11:22;93403.66;;;11.97;74.55
56330;BME280;42236;48.058;10.632;2024-03-02T13:14:11;93395.56;;;11.97;75.07
56330;BME280;42236;48.058;10.632;2024-03-02T13:16:57;93399.06;;;12.01;75.42
56330;BME280;42236;48.058;10.632;2024-03-02T13:19:53;93394.41;;;12.02;72.97
56330;BME280;42236;48.058;10.632;2024-03-02T13:22:40;93394.41;;;12.02;74.45
56330;BME280;42236;48.058;10.632;2024-03-02T13:25:26;93388.22;;;11.98;75.14
56330;BME280;42236;48.058;10.632;2024-03-02T13:28:11;93374.72;;;11.98;74.54
56330;BME280;42236;48.058;10.632;2024-03-02T13:30:57;93378.97;;;11.99;74.59
56330;BME280;42236;48.058;10.632;2024-03-02T13:33:43;93380.13;;;12.01;74.79
56330;BME280;42236;48.058;10.632;2024-03-02T13:36:29;93377.06;;;12.10;75.46
56330;BME280;42236;48.058;10.632;2024-03-02T13:39:15;93370.16;;;12.20;75.37
56330;BME280;42236;48.058;10.632;2024-03-02T13:42:01;93377.50;;;12.26;75.25
56330;BME280;42236;48.058;10.632;2024-03-02T13:44:52;93374.41;;;12.24;75.37
56330;BME280;42236;48.058;10.632;2024-03-02T13:47:38;93366.31;;;12.24;73.65
56330;BME280;42236;48.058;10.632;2024-03-02T13:50:23;93364.00;;;12.23;74.49
56330;BME280;42236;48.058;10.632;2024-03-02T13:53:09;93369.38;;;12.19;74.02
56330;BME280;42236;48.058;10.632;2024-03-02T13:55:54;93356.25;;;12.21;74.05
56330;BME280;42236;48.058;10.632;2024-03-02T13:58:42;93356.28;;;12.28;75.40
56330;BME280;42236;48.058;10.632;2024-03-02T14:01:28;93348.56;;;12.30;75.46
56330;BME280;42236;48.058;10.632;2024-03-02T14:04:14;93346.63;;;12.34;75.01
56330;BME280;42236;48.058;10.632;2024-03-02T14:07:00;93352.81;;;12.38;74.97
56330;BME280;42236;48.058;10.632;2024-03-02T14:09:46;93345.88;;;12.41;75.39
56330;BME280;42236;48.058;10.632;2024-03-02T14:12:32;93347.06;;;12.47;75.79
56330;BME280;42236;48.058;10.632;2024-03-02T14:15:18;93341.66;;;12.47;75.15
56330;BME280;42236;48.058;10.632;2024-03-02T14:18:04;93343.59;;;12.47;74.98
56330;BME280;42236;48.058;10.632;2024-03-02T14:20:50;93345.50;;;12.46;74.98
56330;BME280;42236;48.058;10.632;2024-03-02T14:23:38;93341.25;;;12.49;74.29
56330;BME280;42236;48.058;10.632;2024-03-02T14:26:23;93338.56;;;12.52;74.09
56330;BME280;42236;48.058;10.632;2024-03-02T14:29:09;93337.41;;;12.57;73.94
56330;BME280;42236;48.058;10.632;2024-03-02T14:31:55;93343.22;;;12.59;73.73
56330;BME280;42236;48.058;10.632;2024-03-02T14:34:40;93337.00;;;12.58;72.68
56330;BME280;42236;48.058;10.632;2024-03-02T14:37:26;93326.19;;;12.62;72.90
56330;BME280;42236;48.058;10.632;2024-03-02T14:40:12;93322.34;;;12.67;73.55
56330;BME280;42236;48.058;10.632;2024-03-02T14:42:58;93318.47;;;12.64;72.40
56330;BME280;42236;48.058;10.632;2024-03-02T14:45:44;93322.31;;;12.63;72.81
56330;BME280;42236;48.058;10.632;2024-03-02T14:48:29;93314.22;;;12.59;72.83
56330;BME280;42236;48.058;10.632;2024-03-02T14:51:15;93318.84;;;12.52;72.64
56330;BME280;42236;48.058;10.632;2024-03-02T14:54:01;93315.72;;;12.46;73.00
56330;BME280;42236;48.058;10.632;2024-03-02T14:56:46;93321.53;;;12.41;72.55
56330;BME280;42236;48.058;10.632;2024-03-02T14:59:33;93312.25;;;12.38;72.71
56330;BME280;42236;48.058;10.632;2024-03-02T15:02:19;93311.47;;;12.38;73.19
56330;BME280;42236;48.058;10.632;2024-03-02T15:05:04;93310.72;;;12.37;73.83
56330;BME280;42236;48.058;10.632;2024-03-02T15:07:51;93315.34;;;12.33;74.01
56330;BME280;42236;48.058;10.632;2024-03-02T15:10:37;93313.81;;;12.32;74.44
56330;BME280;42236;48.058;10.632;2024-03-02T15:13:23;93313.41;;;12.30;74.51
56330;BME280;42236;48.058;10.632;2024-03-02T15:16:10;93309.53;;;12.24;75.73
56330;BME280;42236;48.058;10.632;2024-03-02T15:18:56;93310.28;;;12.21;76.65
56330;BME280;42236;48.058;10.632;2024-03-02T15:21:41;93304.50;;;12.19;77.74
56330;BME280;42236;48.058;10.632;2024-03-02T15:24:27;93309.50;;;12.13;78.52
56330;BME280;42236;48.058;10.632;2024-03-02T15:27:13;93304.84;;;12.10;79.35
56330;BME280;42236;48.058;10.632;2024-03-02T15:29:58;93296.38;;;12.12;79.99
56330;BME280;42236;48.058;10.632;2024-03-02T15:32:44;93291.72;;;12.09;80.57
56330;BME280;42236;48.058;10.632;2024-03-02T15:35:30;93295.97;;;12.06;80.83
56330;BME280;42236;48.058;10.632;2024-03-02T15:38:16;93294.41;;;12.05;81.13
56330;BME280;42236;48.058;10.632;2024-03-02T15:41:04;93293.25;;;12.03;81.23
56330;BME280;42236;48.058;10.632;2024-03-02T15:43:49;93302.91;;;12.00;81.62
56330;BME280;42236;48.058;10.632;2024-03-02T15:46:35;93297.47;;;11.89;82.17